sensor_id;sensor_type;location;lat;lon;timestamp;pressure;altitude;pressure_sealevel;temperature;humidity
21728;BME280;11026;50.560;17.852;2023-03-14T00:01:46;97886.56;;;11.71;55.87
21728;BME280;11026;50.560;17.852;2023-03-14T00:04:14;97877.75;;;11.84;55.79
21728;BME280;11026;50.560;17.852;2023-03-14T00:06:42;97883.91;;;11.84;55.62
21728;BME280;11026;50.560;17.852;2023-03-14T00:09:10;97874.25;;;11.83;55.66
21728;BME280;11026;50.560;17.852;2023-03-14T00:11:37;97879.16;;;11.76;56.20
21728;BME280;11026;50.560;17.852;2023-03-14T00:14:05;97867.19;;;11.71;56.42
21728;BME280;11026;50.560;17.852;2023-03-14T00:16:37;97863.00;;;11.68;56.45
21728;BME280;11026;50.560;17.852;2023-03-14T00:19:04;97866.63;;;11.78;56.11
21728;BME280;11026;50.560;17.852;2023-03-14T00:21:32;97857.78;;;11.67;56.54
21728;BME280;11026;50.560;17.852;2023-03-14T00:23:59;97839.75;;;11.72;56.64
21728;BME280;11026;50.560;17.852;2023-03-14T00:26:27;97823.38;;;11.67;56.88
21728;BME280;11026;50.560;17.852;2023-03-14T00:28:55;97820.50;;;11.70;56.81
21728;BME280;11026;50.560;17.852;2023-03-14T00:31:23;97822.88;;;11.62;57.05
21728;BME280;11026;50.560;17.852;2023-03-14T00:33:53;97813.56;;;11.56;57.25
21728;BME280;11026;50.560;17.852;2023-03-14T00:36:21;97810.09;;;11.55;57.26
21728;BME280;11026;50.560;17.852;2023-03-14T00:38:50;97829.22;;;11.59;57.32
21728;BME280;11026;50.560;17.852;2023-03-14T00:41:21;97821.69;;;11.66;57.15
21728;BME280;11026;50.560;17.852;2023-03-14T00:43:52;97809.16;;;11.56;57.46
21728;BME280;11026;50.560;17.852;2023-03-14T00:46:20;97813.97;;;11.63;57.34
21728;BME280;11026;50.560;17.852;2023-03-14T00:48:49;97801.28;;;11.55;57.50
21728;BME280;11026;50.560;17.852;2023-03-14T00:51:18;97786.03;;;11.58;57.37
21728;BME280;11026;50.560;17.852;2023-03-14T00:53:45;97800.69;;;11.51;57.71
21728;BME280;11026;50.560;17.852;2023-03-14T00:56:13;97805.97;;;11.51;57.74
21728;BME280;11026;50.560;17.852;2023-03-14T00:58:42;97796.09;;;11.42;57.94
21728;BME280;11026;50.560;17.852;2023-03-14T01:01:16;97808.88;;;11.48;57.66
21728;BME280;11026;50.560;17.852;2023-03-14T01:03:46;97790.78;;;11.42;58.14
21728;BME280;11026;50.560;17.852;2023-03-14T01:06:17;97793.94;;;11.47;57.91
21728;BME280;11026;50.560;17.852;2023-03-14T01:08:45;97800.94;;;11.48;58.02
21728;BME280;11026;50.560;17.852;2023-03-14T01:11:20;97786.59;;;11.51;57.83
21728;BME280;11026;50.560;17.852;2023-03-14T01:13:55;97796.47;;;11.49;57.84
21728;BME280;11026;50.560;17.852;2023-03-14T01:16:25;97811.84;;;11.44;58.54
21728;BME280;11026;50.560;17.852;2023-03-14T01:18:53;97807.50;;;11.43;58.62
21728;BME280;11026;50.560;17.852;2023-03-14T01:21:26;97815.75;;;11.27;59.60
21728;BME280;11026;50.560;17.852;2023-03-14T01:23:56;97826.13;;;11.30;59.38
21728;BME280;11026;50.560;17.852;2023-03-14T01:26:25;97820.34;;;11.25;59.53
21728;BME280;11026;50.560;17.852;2023-03-14T01:28:55;97809.84;;;11.23;59.39
21728;BME280;11026;50.560;17.852;2023-03-14T01:31:24;97813.50;;;11.33;58.82
21728;BME280;11026;50.560;17.852;2023-03-14T01:33:52;97785.94;;;11.36;59.04
21728;BME280;11026;50.560;17.852;2023-03-14T01:36:19;97790.78;;;11.42;58.63
21728;BME280;11026;50.560;17.852;2023-03-14T01:38:47;97793.94;;;11.47;58.33
21728;BME280;11026;50.560;17.852;2023-03-14T01:41:20;97773.00;;;11.44;58.51
21728;BME280;11026;50.560;17.852;2023-03-14T01:43:48;97785.00;;;11.37;59.08
21728;BME280;11026;50.560;17.852;2023-03-14T01:49:17;97793.75;;;11.26;59.30
21728;BME280;11026;50.560;17.852;2023-03-14T01:51:47;97799.16;;;11.25;59.17
21728;BME280;11026;50.560;17.852;2023-03-14T01:54:21;97793.00;;;11.24;59.23
21728;BME280;11026;50.560;17.852;2023-03-14T01:56:57;97795.97;;;11.20;59.53
21728;BME280;11026;50.560;17.852;2023-03-14T01:59:29;97784.41;;;11.10;60.14
21728;BME280;11026;50.560;17.852;2023-03-14T02:02:16;97773.13;;;11.19;59.60
21728;BME280;11026;50.560;17.852;2023-03-14T02:04:45;97774.31;;;11.15;59.96
21728;BME280;11026;50.560;17.852;2023-03-14T02:07:16;97772.63;;;11.14;60.16
21728;BME280;11026;50.560;17.852;2023-03-14T02:09:44;97765.97;;;11.08;60.26
21728;BME280;11026;50.560;17.852;2023-03-14T02:12:15;97790.34;;;11.00;60.63
21728;BME280;11026;50.560;17.852;2023-03-14T02:14:44;97812.41;;;11.01;59.96
21728;BME280;11026;50.560;17.852;2023-03-14T02:17:18;97864.44;;;11.00;60.55
21728;BME280;11026;50.560;17.852;2023-03-14T02:19:50;97895.47;;;10.98;60.81
21728;BME280;11026;50.560;17.852;2023-03-14T02:22:21;97864.56;;;11.23;59.71
21728;BME280;11026;50.560;17.852;2023-03-14T02:27:26;97836.97;;;11.38;58.89
21728;BME280;11026;50.560;17.852;2023-03-14T02:30:16;97825.88;;;11.57;58.20
21728;BME280;11026;50.560;17.852;2023-03-14T02:32:45;97838.53;;;11.65;57.84
21728;BME280;11026;50.560;17.852;2023-03-14T02:35:17;97823.00;;;11.71;57.40
21728;BME280;11026;50.560;17.852;2023-03-14T02:37:47;97817.63;;;11.73;57.32
21728;BME280;11026;50.560;17.852;2023-03-14T02:40:17;97802.56;;;11.73;57.42
21728;BME280;11026;50.560;17.852;2023-03-14T02:42:44;97818.19;;;11.65;57.78
21728;BME280;11026;50.560;17.852;2023-03-14T02:47:46;97811.69;;;11.69;57.38
21728;BME280;11026;50.560;17.852;2023-03-14T02:50:20;97816.41;;;11.77;57.35
21728;BME280;11026;50.560;17.852;2023-03-14T02:52:48;97808.47;;;11.77;57.01
21728;BME280;11026;50.560;17.852;2023-03-14T02:55:23;97801.94;;;11.70;57.02
21728;BME280;11026;50.560;17.852;2023-03-14T02:57:52;97808.56;;;11.75;57.13
21728;BME280;11026;50.560;17.852;2023-03-14T03:00:20;97812.91;;;11.65;57.27
21728;BME280;11026;50.560;17.852;2023-03-14T03:02:47;97811.09;;;11.66;57.34
21728;BME280;11026;50.560;17.852;2023-03-14T03:05:15;97814.03;;;11.50;58.06
21728;BME280;11026;50.560;17.852;2023-03-14T03:07:42;97816.50;;;11.29;58.97
21728;BME280;11026;50.560;17.852;2023-03-14T03:10:11;97822.91;;;11.14;59.53
21728;BME280;11026;50.560;17.852;2023-03-14T03:12:38;97835.97;;;11.04;60.77
21728;BME280;11026;50.560;17.852;2023-03-14T03:15:06;97846.25;;;10.96;60.97
21728;BME280;11026;50.560;17.852;2023-03-14T03:17:34;97841.63;;;10.87;61.49
21728;BME280;11026;50.560;17.852;2023-03-14T03:20:01;97844.63;;;10.82;61.85
21728;BME280;11026;50.560;17.852;2023-03-14T03:22:29;97850.78;;;10.70;61.96
21728;BME280;11026;50.560;17.852;2023-03-14T03:24:57;97855.66;;;11.00;60.94
21728;BME280;11026;50.560;17.852;2023-03-14T03:27:24;97841.22;;;10.80;61.41
21728;BME280;11026;50.560;17.852;2023-03-14T03:29:52;97852.69;;;10.68;62.07
21728;BME280;11026;50.560;17.852;2023-03-14T03:32:19;97838.00;;;10.51;62.69
21728;BME280;11026;50.560;17.852;2023-03-14T03:34:48;97830.31;;;10.35;63.07
21728;BME280;11026;50.560;17.852;2023-03-14T03:37:15;97822.34;;;10.61;61.84
21728;BME280;11026;50.560;17.852;2023-03-14T03:39:43;97813.94;;;10.79;60.80
21728;BME280;11026;50.560;17.852;2023-03-14T03:42:12;97811.84;;;10.72;60.68
21728;BME280;11026;50.560;17.852;2023-03-14T03:44:40;97801.03;;;10.75;60.70
21728;BME280;11026;50.560;17.852;2023-03-14T03:47:07;97787.97;;;10.97;59.90
21728;BME280;11026;50.560;17.852;2023-03-14T03:49:35;97773.09;;;11.07;59.59
21728;BME280;11026;50.560;17.852;2023-03-14T03:52:04;97756.38;;;11.07;59.28
21728;BME280;11026;50.560;17.852;2023-03-14T03:54:31;97766.38;;;11.15;58.89
21728;BME280;11026;50.560;17.852;2023-03-14T03:57:04;97768.06;;;11.16;58.94
21728;BME280;11026;50.560;17.852;2023-03-14T03:59:31;97772.81;;;10.99;59.75
21728;BME280;11026;50.560;17.852;2023-03-14T04:01:59;97771.63;;;11.03;59.52
21728;BME280;11026;50.560;17.852;2023-03-14T04:04:26;97766.28;;;10.92;60.06
21728;BME280;11026;50.560;17.852;2023-03-14T04:06:53;97765.09;;;10.96;59.97
21728;BME280;11026;50.560;17.852;2023-03-14T04:09:23;97764.88;;;10.99;59.51
21728;BME280;11026;50.560;17.852;2023-03-14T04:11:50;97758.13;;;10.95;59.61
21728;BME280;11026;50.560;17.852;2023-03-14T04:14:18;97757.88;;;11.22;59.30
21728;BME280;11026;50.560;17.852;2023-03-14T04:16:46;97753.59;;;11.32;58.70
21728;BME280;11026;50.560;17.852;2023-03-14T04:19:13;97746.84;;;11.28;58.48
21728;BME280;11026;50.560;17.852;2023-03-14T04:21:40;97751.44;;;11.38;58.70
21728;BME280;11026;50.560;17.852;2023-03-14T04:24:11;97754.66;;;11.30;58.47
21728;BME280;11026;50.560;17.852;2023-03-14T04:26:39;97752.66;;;11.45;57.88
21728;BME280;11026;50.560;17.852;2023-03-14T04:29:06;97755.19;;;11.46;57.66
21728;BME280;11026;50.560;17.852;2023-03-14T04:31:33;97745.56;;;11.45;57.43
21728;BME280;11026;50.560;17.852;2023-03-14T04:34:01;97749.19;;;11.44;57.57
21728;BME280;11026;50.560;17.852;2023-03-14T04:36:28;97740.72;;;11.39;57.99
21728;BME280;11026;50.560;17.852;2023-03-14T04:38:56;97731.53;;;11.32;57.68
21728;BME280;11026;50.560;17.852;2023-03-14T04:41:23;97726.34;;;11.19;58.21
21728;BME280;11026;50.560;17.852;2023-03-14T04:43:50;97722.16;;;11.17;58.02
21728;BME280;11026;50.560;17.852;2023-03-14T04:46:17;97729.06;;;11.06;58.80
21728;BME280;11026;50.560;17.852;2023-03-14T04:48:45;97730.25;;;11.02;58.75
21728;BME280;11026;50.560;17.852;2023-03-14T04:51:12;97724.13;;;11.02;58.73
21728;BME280;11026;50.560;17.852;2023-03-14T04:53:39;97720.13;;;10.96;58.92
21728;BME280;11026;50.560;17.852;2023-03-14T04:56:07;97711.41;;;10.83;59.79
21728;BME280;11026;50.560;17.852;2023-03-14T04:58:34;97704.50;;;10.69;60.57
21728;BME280;11026;50.560;17.852;2023-03-14T05:01:07;97692.56;;;10.64;60.34
21728;BME280;11026;50.560;17.852;2023-03-14T05:03:35;97682.69;;;10.54;60.53
21728;BME280;11026;50.560;17.852;2023-03-14T05:06:07;97676.56;;;10.41;61.25
21728;BME280;11026;50.560;17.852;2023-03-14T05:08:37;97665.63;;;10.34;61.63
21728;BME280;11026;50.560;17.852;2023-03-14T05:11:05;97677.38;;;10.30;61.38
21728;BME280;11026;50.560;17.852;2023-03-14T05:13:33;97671.56;;;10.25;61.63
21728;BME280;11026;50.560;17.852;2023-03-14T05:16:04;97673.34;;;10.25;61.65
21728;BME280;11026;50.560;17.852;2023-03-14T05:18:39;97665.44;;;10.25;61.59
21728;BME280;11026;50.560;17.852;2023-03-14T05:21:06;97655.28;;;10.19;61.78
21728;BME280;11026;50.560;17.852;2023-03-14T05:23:34;97636.50;;;10.10;62.42
21728;BME280;11026;50.560;17.852;2023-03-14T05:26:01;97626.38;;;10.04;62.84
21728;BME280;11026;50.560;17.852;2023-03-14T05:28:29;97612.03;;;9.96;63.31
21728;BME280;11026;50.560;17.852;2023-03-14T05:30:56;97604.72;;;9.99;62.93
21728;BME280;11026;50.560;17.852;2023-03-14T05:33:24;97597.22;;;10.06;62.37
21728;BME280;11026;50.560;17.852;2023-03-14T05:35:53;97573.75;;;10.01;62.82
21728;BME280;11026;50.560;17.852;2023-03-14T05:38:20;97577.66;;;10.08;62.40
21728;BME280;11026;50.560;17.852;2023-03-14T05:40:48;97578.59;;;10.07;62.05
21728;BME280;11026;50.560;17.852;2023-03-14T05:43:16;97553.50;;;10.02;62.52
21728;BME280;11026;50.560;17.852;2023-03-14T05:45:43;97566.19;;;9.97;62.86
21728;BME280;11026;50.560;17.852;2023-03-14T05:48:12;97572.28;;;9.97;62.69
21728;BME280;11026;50.560;17.852;2023-03-14T05:50:39;97566.09;;;9.98;62.43
21728;BME280;11026;50.560;17.852;2023-03-14T05:53:06;97557.91;;;10.01;62.40
21728;BME280;11026;50.560;17.852;2023-03-14T05:55:35;97547.81;;;9.95;62.54
21728;BME280;11026;50.560;17.852;2023-03-14T05:58:03;97551.63;;;9.91;63.11
21728;BME280;11026;50.560;17.852;2023-03-14T06:00:30;97542.75;;;9.92;62.83
21728;BME280;11026;50.560;17.852;2023-03-14T06:03:01;97550.16;;;9.87;62.99
21728;BME280;11026;50.560;17.852;2023-03-14T06:05:31;97560.94;;;9.84;62.94
21728;BME280;11026;50.560;17.852;2023-03-14T06:07:59;97564.75;;;9.80;63.38
21728;BME280;11026;50.560;17.852;2023-03-14T06:10:26;97552.72;;;9.76;63.65
21728;BME280;11026;50.560;17.852;2023-03-14T06:12:54;97544.41;;;9.69;64.02
21728;BME280;11026;50.560;17.852;2023-03-14T06:15:21;97553.16;;;9.70;63.84
21728;BME280;11026;50.560;17.852;2023-03-14T06:17:49;97537.66;;;9.65;64.62
21728;BME280;11026;50.560;17.852;2023-03-14T06:20:17;97520.47;;;9.59;64.61
21728;BME280;11026;50.560;17.852;2023-03-14T06:22:45;97489.03;;;9.56;64.83
21728;BME280;11026;50.560;17.852;2023-03-14T06:25:12;97490.69;;;9.57;64.82
21728;BME280;11026;50.560;17.852;2023-03-14T06:27:39;97510.34;;;9.53;64.98
21728;BME280;11026;50.560;17.852;2023-03-14T06:30:07;97476.28;;;9.50;64.88
21728;BME280;11026;50.560;17.852;2023-03-14T06:32:34;97484.91;;;9.52;65.10
21728;BME280;11026;50.560;17.852;2023-03-14T06:35:02;97499.44;;;9.58;64.74
21728;BME280;11026;50.560;17.852;2023-03-14T06:37:29;97532.00;;;9.58;65.23
21728;BME280;11026;50.560;17.852;2023-03-14T06:39:57;97514.22;;;9.60;64.94
21728;BME280;11026;50.560;17.852;2023-03-14T06:42:37;97540.28;;;9.65;64.79
21728;BME280;11026;50.560;17.852;2023-03-14T06:45:04;97561.53;;;9.64;64.94
21728;BME280;11026;50.560;17.852;2023-03-14T06:47:33;97580.66;;;9.67;64.60
21728;BME280;11026;50.560;17.852;2023-03-14T06:50:00;97580.66;;;9.67;64.62
21728;BME280;11026;50.560;17.852;2023-03-14T06:52:29;97565.53;;;9.69;64.69
21728;BME280;11026;50.560;17.852;2023-03-14T06:54:57;97590.25;;;9.68;64.58
21728;BME280;11026;50.560;17.852;2023-03-14T06:57:24;97607.66;;;9.71;64.96
21728;BME280;11026;50.560;17.852;2023-03-14T06:59:52;97625.19;;;9.72;65.04
21728;BME280;11026;50.560;17.852;2023-03-14T07:02:19;97623.50;;;9.71;64.70
21728;BME280;11026;50.560;17.852;2023-03-14T07:04:55;97637.22;;;9.76;65.12
21728;BME280;11026;50.560;17.852;2023-03-14T07:07:28;97652.00;;;9.78;65.27
21728;BME280;11026;50.560;17.852;2023-03-14T07:09:55;97649.47;;;9.77;65.19
21728;BME280;11026;50.560;17.852;2023-03-14T07:12:23;97649.47;;;9.77;65.14
21728;BME280;11026;50.560;17.852;2023-03-14T07:14:50;97652.72;;;9.80;65.19
21728;BME280;11026;50.560;17.852;2023-03-14T07:17:19;97647.97;;;9.85;65.26
21728;BME280;11026;50.560;17.852;2023-03-14T07:19:47;97651.34;;;9.88;65.07
21728;BME280;11026;50.560;17.852;2023-03-14T07:22:21;97646.69;;;9.91;64.93
21728;BME280;11026;50.560;17.852;2023-03-14T07:24:48;97648.38;;;9.92;65.13
21728;BME280;11026;50.560;17.852;2023-03-14T07:27:27;97647.97;;;9.98;64.91
21728;BME280;11026;50.560;17.852;2023-03-14T07:29:55;97633.78;;;9.99;65.00
21728;BME280;11026;50.560;17.852;2023-03-14T07:32:23;97649.19;;;10.05;64.74
21728;BME280;11026;50.560;17.852;2023-03-14T07:34:50;97652.16;;;10.14;64.11
21728;BME280;11026;50.560;17.852;2023-03-14T07:37:18;97636.88;;;10.17;64.38
21728;BME280;11026;50.560;17.852;2023-03-14T07:39:45;97642.91;;;10.19;64.26
21728;BME280;11026;50.560;17.852;2023-03-14T07:42:13;97646.00;;;10.26;63.97
21728;BME280;11026;50.560;17.852;2023-03-14T07:44:40;97645.75;;;10.29;63.91
21728;BME280;11026;50.560;17.852;2023-03-14T07:47:09;97645.31;;;10.35;63.71
21728;BME280;11026;50.560;17.852;2023-03-14T07:49:38;97644.03;;;10.41;63.93
21728;BME280;11026;50.560;17.852;2023-03-14T07:52:05;97654.72;;;10.39;64.09
21728;BME280;11026;50.560;17.852;2023-03-14T07:54:33;97657.13;;;10.42;63.94
21728;BME280;11026;50.560;17.852;2023-03-14T07:57:01;97653.75;;;10.40;63.73
21728;BME280;11026;50.560;17.852;2023-03-14T07:59:29;97666.63;;;10.45;63.86
21728;BME280;11026;50.560;17.852;2023-03-14T08:01:56;97668.34;;;10.46;63.83
21728;BME280;11026;50.560;17.852;2023-03-14T08:04:23;97686.72;;;10.47;64.17
21728;BME280;11026;50.560;17.852;2023-03-14T08:06:51;97695.41;;;10.49;64.08
21728;BME280;11026;50.560;17.852;2023-03-14T08:09:19;97694.53;;;10.49;64.27
21728;BME280;11026;50.560;17.852;2023-03-14T08:11:46;97697.06;;;10.50;64.14
21728;BME280;11026;50.560;17.852;2023-03-14T08:14:13;97692.97;;;10.46;63.97
21728;BME280;11026;50.560;17.852;2023-03-14T08:16:40;97685.75;;;10.48;64.44
21728;BME280;11026;50.560;17.852;2023-03-14T08:19:07;97691.16;;;10.47;64.12
21728;BME280;11026;50.560;17.852;2023-03-14T08:21:40;97712.81;;;10.52;64.08
21728;BME280;11026;50.560;17.852;2023-03-14T08:24:07;97715.44;;;10.52;64.41
21728;BME280;11026;50.560;17.852;2023-03-14T08:26:34;97710.16;;;10.52;64.34
21728;BME280;11026;50.560;17.852;2023-03-14T08:29:01;97709.94;;;10.55;64.25
21728;BME280;11026;50.560;17.852;2023-03-14T08:31:30;97711.63;;;10.56;64.02
21728;BME280;11026;50.560;17.852;2023-03-14T08:34:01;97710.66;;;10.57;64.29
21728;BME280;11026;50.560;17.852;2023-03-14T08:36:28;97701.88;;;10.56;64.58
21728;BME280;11026;50.560;17.852;2023-03-14T08:38:56;97700.84;;;10.59;64.24
21728;BME280;11026;50.560;17.852;2023-03-14T08:41:25;97700.97;;;10.57;64.30
21728;BME280;11026;50.560;17.852;2023-03-14T08:43:52;97692.78;;;10.61;64.40
21728;BME280;11026;50.560;17.852;2023-03-14T08:46:19;97690.88;;;10.63;63.96
21728;BME280;11026;50.560;17.852;2023-03-14T08:48:48;97689.56;;;10.68;63.99
21728;BME280;11026;50.560;17.852;2023-03-14T08:51:15;97662.06;;;10.71;63.99
21728;BME280;11026;50.560;17.852;2023-03-14T08:53:43;97661.34;;;10.69;63.88
21728;BME280;11026;50.560;17.852;2023-03-14T08:56:10;97676.47;;;10.67;63.91
21728;BME280;11026;50.560;17.852;2023-03-14T08:58:37;97675.44;;;10.69;64.48
21728;BME280;11026;50.560;17.852;2023-03-14T09:01:05;97683.00;;;10.74;64.42
21728;BME280;11026;50.560;17.852;2023-03-14T09:03:37;97686.84;;;10.70;64.28
21728;BME280;11026;50.560;17.852;2023-03-14T09:06:07;97697.84;;;10.64;64.26
21728;BME280;11026;50.560;17.852;2023-03-14T09:08:35;97699.31;;;10.68;64.34
21728;BME280;11026;50.560;17.852;2023-03-14T09:11:08;97698.47;;;10.67;64.30
21728;BME280;11026;50.560;17.852;2023-03-14T09:13:36;97706.97;;;10.59;65.19
21728;BME280;11026;50.560;17.852;2023-03-14T09:16:03;97707.47;;;10.65;64.90
21728;BME280;11026;50.560;17.852;2023-03-14T09:18:32;97727.69;;;10.66;65.00
21728;BME280;11026;50.560;17.852;2023-03-14T09:21:01;97739.66;;;10.58;65.05
21728;BME280;11026;50.560;17.852;2023-03-14T09:23:30;97733.63;;;10.56;65.20
21728;BME280;11026;50.560;17.852;2023-03-14T09:25:59;97737.22;;;10.55;65.47
21728;BME280;11026;50.560;17.852;2023-03-14T09:28:26;97750.66;;;10.52;65.67
21728;BME280;11026;50.560;17.852;2023-03-14T09:30:54;97727.00;;;10.51;65.71
21728;BME280;11026;50.560;17.852;2023-03-14T09:33:21;97726.66;;;10.55;65.13
21728;BME280;11026;50.560;17.852;2023-03-14T09:35:49;97725.59;;;10.58;65.53
21728;BME280;11026;50.560;17.852;2023-03-14T09:38:16;97724.84;;;10.56;65.86
21728;BME280;11026;50.560;17.852;2023-03-14T09:40:44;97713.09;;;10.60;65.58
21728;BME280;11026;50.560;17.852;2023-03-14T09:43:14;97717.53;;;10.59;66.02
21728;BME280;11026;50.560;17.852;2023-03-14T09:45:44;97714.84;;;10.72;65.62
21728;BME280;11026;50.560;17.852;2023-03-14T09:48:21;97712.81;;;10.76;65.59
21728;BME280;11026;50.560;17.852;2023-03-14T09:50:55;97723.84;;;10.70;65.74
21728;BME280;11026;50.560;17.852;2023-03-14T09:53:46;97735.09;;;10.61;66.16
21728;BME280;11026;50.560;17.852;2023-03-14T09:58:50;97737.91;;;10.46;66.64
21728;BME280;11026;50.560;17.852;2023-03-14T10:01:26;97732.41;;;10.49;66.71
21728;BME280;11026;50.560;17.852;2023-03-14T10:04:06;97727.53;;;10.43;66.61
21728;BME280;11026;50.560;17.852;2023-03-14T10:06:39;97725.84;;;10.42;67.05
21728;BME280;11026;50.560;17.852;2023-03-14T10:09:13;97750.81;;;10.38;67.73
21728;BME280;11026;50.560;17.852;2023-03-14T10:11:44;97755.34;;;10.36;68.55
21728;BME280;11026;50.560;17.852;2023-03-14T10:14:11;97747.56;;;10.34;68.29
21728;BME280;11026;50.560;17.852;2023-03-14T10:16:45;97749.84;;;10.39;68.18
21728;BME280;11026;50.560;17.852;2023-03-14T10:19:14;97743.59;;;10.40;68.30
21728;BME280;11026;50.560;17.852;2023-03-14T10:21:50;97756.63;;;10.43;68.56
21728;BME280;11026;50.560;17.852;2023-03-14T10:24:27;97755.88;;;10.41;69.53
21728;BME280;11026;50.560;17.852;2023-03-14T10:27:00;97775.53;;;10.37;70.64
21728;BME280;11026;50.560;17.852;2023-03-14T10:29:51;97785.25;;;10.24;71.61
21728;BME280;11026;50.560;17.852;2023-03-14T10:32:20;97783.47;;;10.12;74.88
21728;BME280;11026;50.560;17.852;2023-03-14T10:37:33;97773.25;;;9.94;78.36
21728;BME280;11026;50.560;17.852;2023-03-14T10:40:01;97780.88;;;9.86;79.64
21728;BME280;11026;50.560;17.852;2023-03-14T10:42:39;97785.72;;;9.79;80.63
21728;BME280;11026;50.560;17.852;2023-03-14T10:45:32;97785.06;;;9.76;82.13
21728;BME280;11026;50.560;17.852;2023-03-14T10:48:22;97783.59;;;9.59;84.32
21728;BME280;11026;50.560;17.852;2023-03-14T10:53:25;97772.38;;;9.43;88.12
21728;BME280;11026;50.560;17.852;2023-03-14T10:55:55;97764.75;;;9.38;87.27
21728;BME280;11026;50.560;17.852;2023-03-14T10:58:28;97764.97;;;9.35;86.67
21728;BME280;11026;50.560;17.852;2023-03-14T11:01:47;97777.00;;;9.39;86.09
21728;BME280;11026;50.560;17.852;2023-03-14T11:03:56;97772.16;;;9.46;84.36
21728;BME280;11026;50.560;17.852;2023-03-14T11:09:34;97762.03;;;9.52;84.16
21728;BME280;11026;50.560;17.852;2023-03-14T11:21:05;97756.94;;;9.49;83.17
21728;BME280;11026;50.560;17.852;2023-03-14T11:29:54;97743.47;;;9.67;80.83
21728;BME280;11026;50.560;17.852;2023-03-14T11:35:33;97729.72;;;9.61;81.92
21728;BME280;11026;50.560;17.852;2023-03-14T11:38:32;97721.06;;;9.72;80.14
21728;BME280;11026;50.560;17.852;2023-03-14T11:41:02;97720.53;;;9.80;79.10
21728;BME280;11026;50.560;17.852;2023-03-14T11:43:48;97712.63;;;9.80;79.19
21728;BME280;11026;50.560;17.852;2023-03-14T11:46:25;97712.63;;;9.80;78.46
21728;BME280;11026;50.560;17.852;2023-03-14T11:51:43;97708.19;;;9.80;79.22
21728;BME280;11026;50.560;17.852;2023-03-14T11:54:32;97705.75;;;9.77;79.31
21728;BME280;11026;50.560;17.852;2023-03-14T11:57:09;97709.47;;;9.75;79.35
21728;BME280;11026;50.560;17.852;2023-03-14T11:59:59;97710.94;;;9.79;79.89
21728;BME280;11026;50.560;17.852;2023-03-14T12:02:45;97709.34;;;9.76;79.57
21728;BME280;11026;50.560;17.852;2023-03-14T12:05:37;97705.53;;;9.80;79.84
21728;BME280;11026;50.560;17.852;2023-03-14T12:08:19;97694.13;;;9.80;79.61
21728;BME280;11026;50.560;17.852;2023-03-14T12:11:10;97707.34;;;9.80;80.43
21728;BME280;11026;50.560;17.852;2023-03-14T12:13:40;97693.38;;;9.78;80.68
21728;BME280;11026;50.560;17.852;2023-03-14T12:16:26;97680.19;;;9.78;82.41
21728;BME280;11026;50.560;17.852;2023-03-14T12:18:55;97678.00;;;9.72;83.81
21728;BME280;11026;50.560;17.852;2023-03-14T12:21:42;97682.13;;;9.63;84.98
21728;BME280;11026;50.560;17.852;2023-03-14T12:24:18;97685.38;;;9.54;87.05
21728;BME280;11026;50.560;17.852;2023-03-14T12:26:55;97691.81;;;9.50;88.14
21728;BME280;11026;50.560;17.852;2023-03-14T12:29:23;97694.69;;;9.47;88.94
21728;BME280;11026;50.560;17.852;2023-03-14T12:32:12;97694.69;;;9.47;89.23
21728;BME280;11026;50.560;17.852;2023-03-14T12:34:48;97698.16;;;9.47;89.36
21728;BME280;11026;50.560;17.852;2023-03-14T12:37:50;97705.66;;;9.53;88.74
21728;BME280;11026;50.560;17.852;2023-03-14T12:40:37;97710.94;;;9.53;89.43
21728;BME280;11026;50.560;17.852;2023-03-14T12:43:30;97702.09;;;9.54;89.93
21728;BME280;11026;50.560;17.852;2023-03-14T12:48:49;97687.09;;;9.55;89.63
21728;BME280;11026;50.560;17.852;2023-03-14T12:51:30;97686.75;;;9.59;90.52
21728;BME280;11026;50.560;17.852;2023-03-14T12:54:34;97666.59;;;9.58;91.26
21728;BME280;11026;50.560;17.852;2023-03-14T12:57:33;97663.00;;;9.59;91.80
21728;BME280;11026;50.560;17.852;2023-03-14T13:00:17;97669.13;;;9.60;92.01
21728;BME280;11026;50.560;17.852;2023-03-14T13:02:51;97677.34;;;9.68;91.67
21728;BME280;11026;50.560;17.852;2023-03-14T13:05:21;97674.59;;;9.70;91.01
21728;BME280;11026;50.560;17.852;2023-03-14T13:10:45;97662.25;;;9.83;90.91
21728;BME280;11026;50.560;17.852;2023-03-14T13:13:35;97668.25;;;9.85;90.17
21728;BME280;11026;50.560;17.852;2023-03-14T13:16:04;97682.84;;;9.91;90.04
21728;BME280;11026;50.560;17.852;2023-03-14T13:18:36;97681.53;;;9.96;89.81
21728;BME280;11026;50.560;17.852;2023-03-14T13:23:33;97678.97;;;10.07;87.88
21728;BME280;11026;50.560;17.852;2023-03-14T13:26:01;97674.97;;;10.15;87.35
21728;BME280;11026;50.560;17.852;2023-03-14T13:28:30;97655.06;;;10.22;86.79
21728;BME280;11026;50.560;17.852;2023-03-14T13:31:02;97655.06;;;10.22;86.45
21728;BME280;11026;50.560;17.852;2023-03-14T13:33:30;97652.22;;;10.25;86.46
21728;BME280;11026;50.560;17.852;2023-03-14T13:36:03;97642.28;;;10.28;85.99
21728;BME280;11026;50.560;17.852;2023-03-14T13:38:34;97652.50;;;10.33;86.42
21728;BME280;11026;50.560;17.852;2023-03-14T13:41:07;97653.97;;;10.37;85.78
21728;BME280;11026;50.560;17.852;2023-03-14T13:43:43;97672.25;;;10.40;85.56
21728;BME280;11026;50.560;17.852;2023-03-14T13:46:16;97663.47;;;10.40;85.52
21728;BME280;11026;50.560;17.852;2023-03-14T13:48:57;97643.81;;;10.44;84.95
21728;BME280;11026;50.560;17.852;2023-03-14T13:51:26;97641.06;;;10.45;85.32
21728;BME280;11026;50.560;17.852;2023-03-14T13:53:58;97640.19;;;10.45;85.18
21728;BME280;11026;50.560;17.852;2023-03-14T13:56:30;97627.59;;;10.48;84.57
21728;BME280;11026;50.560;17.852;2023-03-14T13:58:58;97641.78;;;10.47;84.38
21728;BME280;11026;50.560;17.852;2023-03-14T14:01:34;97644.19;;;10.50;84.35